Time;durP1;ratioP1;P1;durP2;ratioP2;P2;SDS_P1;SDS_P2;PMS_P1;PMS_P2;Temp;Humidity;BMP_temperature;BMP_pressure;BME280_temperature;BME280_humidity;BME280_pressure;Samples;Min_cycle;Max_cycle;Signal;HPM_P1;HPM_P2
2021/04/22 00:02:09;;;;;;;14.37;3.57;;;5.40;99.90;;;;;;4951512;29;20216;-86
2021/04/22 00:04:35;;;;;;;14.77;4.20;;;5.30;99.90;;;;;;4950976;29;20232;-87
2021/04/22 00:07:01;;;;;;;14.63;3.70;;;5.30;99.90;;;;;;4951758;28;20575;-87
2021/04/22 00:09:28;;;;;;;14.60;3.70;;;5.30;99.90;;;;;;4951732;29;20209;-87
2021/04/22 00:11:54;;;;;;;10.10;4.00;;;5.30;99.90;;;;;;4951369;29;20197;-87
2021/04/22 00:14:21;;;;;;;14.93;4.03;;;5.30;99.90;;;;;;4969054;28;20228;-86
2021/04/22 00:16:48;;;;;;;11.97;3.70;;;5.20;99.90;;;;;;4970904;28;20629;-87
2021/04/22 00:19:14;;;;;;;11.27;3.53;;;5.20;99.90;;;;;;4961489;28;20205;-86
2021/04/22 00:21:41;;;;;;;13.27;3.40;;;5.20;99.90;;;;;;4951644;29;20193;-86
2021/04/22 00:24:08;;;;;;;15.83;3.73;;;5.10;99.90;;;;;;4951929;29;20229;-87
2021/04/22 00:26:34;;;;;;;13.73;4.10;;;5.20;99.90;;;;;;4962909;28;20205;-87
2021/04/22 00:29:00;;;;;;;13.10;4.27;;;5.10;99.90;;;;;;4970846;28;20197;-87
2021/04/22 00:31:28;;;;;;;15.87;4.50;;;5.10;99.90;;;;;;4970842;28;20521;-86
2021/04/22 00:33:54;;;;;;;18.10;5.47;;;5.10;99.90;;;;;;4969820;28;20212;-85
2021/04/22 00:36:21;;;;;;;14.53;3.27;;;5.10;99.90;;;;;;4959274;28;20213;-86
2021/04/22 00:38:47;;;;;;;13.27;4.20;;;5.10;99.90;;;;;;4951696;28;20549;-88
2021/04/22 00:41:14;;;;;;;12.37;3.57;;;5.20;99.90;;;;;;4970390;28;20260;-84
2021/04/22 00:43:40;;;;;;;10.80;5.13;;;5.20;99.90;;;;;;4969684;28;20264;-86
2021/04/22 00:46:07;;;;;;;11.67;3.40;;;5.20;99.90;;;;;;4967418;28;20262;-87
2021/04/22 00:48:34;;;;;;;16.23;4.10;;;5.20;99.90;;;;;;4965230;28;20205;-86
2021/04/22 00:51:01;;;;;;;16.43;4.50;;;5.20;99.90;;;;;;4951353;29;20256;-88
2021/04/22 00:53:27;;;;;;;9.17;3.60;;;5.20;99.90;;;;;;4951622;29;20223;-87
2021/04/22 00:55:55;;;;;;;11.27;3.57;;;5.20;99.90;;;;;;4951321;29;20283;-87
2021/04/22 00:58:22;;;;;;;17.87;4.20;;;5.10;99.90;;;;;;4955273;28;20216;-87
2021/04/22 01:00:53;;;;;;;11.70;3.87;;;5.10;99.90;;;;;;4970516;28;20283;-88
2021/04/22 01:03:20;;;;;;;10.67;4.13;;;5.10;99.90;;;;;;4969852;28;20228;-87
2021/04/22 01:05:49;;;;;;;9.23;3.80;;;5.10;99.90;;;;;;4941887;28;20224;-87
2021/04/22 01:08:16;;;;;;;13.33;3.77;;;5.00;99.90;;;;;;4955002;28;20287;-87
2021/04/22 01:10:43;;;;;;;11.43;4.03;;;5.00;99.90;;;;;;4954604;29;20212;-86
2021/04/22 01:13:09;;;;;;;15.73;3.73;;;5.00;99.90;;;;;;4954476;29;20209;-87
2021/04/22 01:15:36;;;;;;;13.73;3.80;;;5.00;99.90;;;;;;4964107;28;20232;-87
2021/04/22 01:18:05;;;;;;;14.70;3.53;;;5.20;99.90;;;;;;4973550;28;20225;-87
2021/04/22 01:20:40;;;;;;;12.30;3.87;;;5.20;99.90;;;;;;4961079;28;20209;-87
2021/04/22 01:23:07;;;;;;;11.20;3.60;;;5.20;99.90;;;;;;4953857;29;20204;-86
2021/04/22 01:25:35;;;;;;;7.70;3.47;;;5.20;99.90;;;;;;4953668;29;20617;-87
2021/04/22 01:28:03;;;;;;;9.27;3.57;;;5.20;99.90;;;;;;4967871;28;20520;-87
2021/04/22 01:30:32;;;;;;;19.23;4.50;;;5.10;99.90;;;;;;4973825;28;20200;-87
2021/04/22 01:32:59;;;;;;;14.27;4.20;;;5.10;99.90;;;;;;4954176;29;20197;-87
2021/04/22 01:35:31;;;;;;;16.43;4.90;;;5.00;99.90;;;;;;4956363;28;20657;-86
2021/04/22 01:37:58;;;;;;;6.67;3.50;;;5.00;99.90;;;;;;4973788;28;20201;-85
2021/04/22 01:40:26;;;;;;;13.30;4.30;;;5.00;99.90;;;;;;4973645;28;20204;-84
2021/04/22 01:42:53;;;;;;;10.77;3.53;;;5.00;99.90;;;;;;4972936;28;20227;-87
2021/04/22 01:45:19;;;;;;;14.33;4.00;;;5.00;99.90;;;;;;4972939;28;20239;-86
2021/04/22 01:47:46;;;;;;;10.27;3.97;;;5.00;99.90;;;;;;4973100;28;20209;-87
2021/04/22 01:50:16;;;;;;;10.77;4.33;;;5.10;99.90;;;;;;4973387;28;20207;-87
2021/04/22 01:52:43;;;;;;;11.50;4.33;;;5.10;99.90;;;;;;4968522;28;20213;-85
2021/04/22 01:55:11;;;;;;;9.80;3.40;;;5.10;99.90;;;;;;4953907;29;20237;-86
2021/04/22 01:57:40;;;;;;;15.60;3.77;;;5.10;99.90;;;;;;4953261;29;20209;-85
2021/04/22 02:00:13;;;;;;;9.70;3.97;;;5.10;99.90;;;;;;4952973;29;20237;-86
2021/04/22 02:02:39;;;;;;;16.70;3.33;;;5.20;99.90;;;;;;4966426;28;20667;-88
2021/04/22 02:05:07;;;;;;;7.90;2.70;;;5.10;99.90;;;;;;4972256;28;20224;-87
2021/04/22 02:07:34;;;;;;;13.00;3.40;;;5.10;99.90;;;;;;4972427;28;20219;-87
2021/04/22 02:10:00;;;;;;;13.10;3.63;;;5.10;99.90;;;;;;4973067;28;20255;-87
2021/04/22 02:12:26;;;;;;;12.23;4.20;;;5.10;99.90;;;;;;4972306;28;20205;-88
2021/04/22 02:14:54;;;;;;;13.90;4.73;;;5.00;99.90;;;;;;4972559;28;20557;-88
2021/04/22 02:17:20;;;;;;;10.03;3.20;;;5.00;99.90;;;;;;4957747;28;20962;-89
2021/04/22 02:19:46;;;;;;;14.53;3.83;;;5.00;99.90;;;;;;4952772;29;20236;-88
2021/04/22 02:22:13;;;;;;;9.93;3.57;;;5.00;99.90;;;;;;4957998;28;20213;-87
2021/04/22 02:24:39;;;;;;;10.60;2.87;;;4.90;99.90;;;;;;4972065;28;20232;-87
2021/04/22 02:27:07;;;;;;;9.70;3.00;;;4.90;99.90;;;;;;4971007;28;20243;-87
2021/04/22 02:29:33;;;;;;;9.43;3.40;;;4.90;99.90;;;;;;4961429;28;20601;-88
2021/04/22 02:32:00;;;;;;;8.00;2.67;;;4.80;99.90;;;;;;4949576;29;20395;-87
2021/04/22 02:34:27;;;;;;;10.13;2.67;;;4.80;99.90;;;;;;4953666;29;20201;-89
2021/04/22 02:36:53;;;;;;;8.97;3.20;;;4.80;99.90;;;;;;4953501;29;20594;-89
2021/04/22 02:39:19;;;;;;;8.03;2.60;;;4.70;99.90;;;;;;4952893;28;20220;-88
2021/04/22 02:41:45;;;;;;;6.73;2.60;;;4.70;99.90;;;;;;4953023;29;20574;-89
2021/04/22 02:44:12;;;;;;;9.90;2.83;;;4.60;99.90;;;;;;4953512;28;20693;-87
2021/04/22 02:46:38;;;;;;;7.33;2.90;;;4.60;99.90;;;;;;4952281;29;20217;-86
2021/04/22 02:49:06;;;;;;;7.00;2.50;;;4.50;99.90;;;;;;4952769;29;20213;-88
2021/04/22 02:51:33;;;;;;;11.40;3.80;;;4.50;99.90;;;;;;4966605;28;20517;-90
2021/04/22 02:53:59;;;;;;;7.53;2.40;;;4.50;99.90;;;;;;4972180;28;20510;-88
2021/04/22 02:56:25;;;;;;;6.60;2.50;;;4.50;99.90;;;;;;4971556;28;20260;-88
2021/04/22 02:58:52;;;;;;;6.47;2.30;;;4.40;99.90;;;;;;4957635;28;20217;-88
2021/04/22 03:01:18;;;;;;;5.20;2.27;;;4.40;99.90;;;;;;4952024;28;20213;-89
2021/04/22 03:03:44;;;;;;;6.80;2.57;;;4.40;99.90;;;;;;4951632;28;20233;-89
2021/04/22 03:06:11;;;;;;;9.33;3.47;;;4.40;99.90;;;;;;4951226;29;20274;-89
2021/04/22 03:08:38;;;;;;;8.97;2.50;;;4.40;99.90;;;;;;4950439;29;20269;-88
2021/04/22 03:11:04;;;;;;;6.43;2.20;;;4.40;99.90;;;;;;4951008;28;20217;-89
2021/04/22 03:13:30;;;;;;;7.67;2.10;;;4.30;99.90;;;;;;4952024;29;20205;-86
2021/04/22 03:15:57;;;;;;;7.70;2.10;;;4.30;99.90;;;;;;4951182;28;20233;-87
2021/04/22 03:18:23;;;;;;;7.50;2.20;;;4.40;99.90;;;;;;4950328;29;20612;-90
2021/04/22 03:20:50;;;;;;;7.13;2.73;;;4.30;99.90;;;;;;4950412;29;20909;-87
2021/04/22 03:23:17;;;;;;;5.33;2.17;;;4.30;99.90;;;;;;4950780;28;20209;-89
2021/04/22 03:25:43;;;;;;;4.57;2.07;;;4.30;99.90;;;;;;4951398;29;20240;-86
2021/04/22 03:28:10;;;;;;;10.37;3.33;;;4.30;99.90;;;;;;4950456;28;20217;-88
2021/04/22 03:30:37;;;;;;;7.90;2.33;;;4.30;99.90;;;;;;4950297;29;20213;-87
2021/04/22 03:33:03;;;;;;;5.60;2.60;;;4.20;99.90;;;;;;4952272;28;20240;-89
2021/04/22 03:35:30;;;;;;;7.00;2.67;;;4.20;99.90;;;;;;4951470;29;20340;-86
2021/04/22 03:37:56;;;;;;;9.93;2.73;;;4.20;99.90;;;;;;4951645;29;20201;-87
2021/04/22 03:40:25;;;;;;;6.23;2.73;;;4.20;99.90;;;;;;4963540;28;20223;-87
2021/04/22 03:42:52;;;;;;;8.87;2.80;;;4.10;99.90;;;;;;4972026;28;20189;-86
2021/04/22 03:45:22;;;;;;;8.47;2.60;;;4.10;99.90;;;;;;4971241;28;20224;-86
2021/04/22 03:47:49;;;;;;;11.50;2.90;;;4.10;99.90;;;;;;4952381;29;20213;-86
2021/04/22 03:50:17;;;;;;;12.47;2.60;;;4.20;99.90;;;;;;4951982;29;20231;-87
2021/04/22 03:52:44;;;;;;;8.30;2.80;;;4.20;99.90;;;;;;4960267;28;20601;-86
2021/04/22 03:55:12;;;;;;;8.67;2.33;;;4.20;99.90;;;;;;4970610;28;20240;-87
2021/04/22 03:57:40;;;;;;;11.17;2.77;;;4.20;99.90;;;;;;4969611;28;20209;-87
2021/04/22 04:00:08;;;;;;;8.83;2.30;;;4.20;99.90;;;;;;4966493;28;20590;-89
2021/04/22 04:02:34;;;;;;;8.70;3.03;;;4.20;99.90;;;;;;4965529;28;20212;-89
2021/04/22 04:05:01;;;;;;;13.23;3.80;;;4.20;99.90;;;;;;4970934;28;20239;-89
2021/04/22 04:07:27;;;;;;;9.47;2.20;;;4.20;99.90;;;;;;4971164;28;20238;-88
2021/04/22 04:09:54;;;;;;;11.03;2.40;;;4.20;99.90;;;;;;4969949;28;20200;-87
2021/04/22 04:12:20;;;;;;;10.00;2.10;;;4.20;99.90;;;;;;4966897;28;20207;-89
2021/04/22 04:14:47;;;;;;;7.70;2.37;;;4.20;99.90;;;;;;4970062;28;20224;-87
2021/04/22 04:17:14;;;;;;;7.43;2.60;;;4.20;99.90;;;;;;4970195;28;20220;-86
2021/04/22 04:19:40;;;;;;;7.13;2.07;;;4.20;99.90;;;;;;4970413;28;20193;-86
2021/04/22 04:22:06;;;;;;;7.27;2.10;;;4.20;99.90;;;;;;4969050;28;20208;-88
2021/04/22 04:24:33;;;;;;;11.90;2.97;;;4.20;99.90;;;;;;4950782;29;20244;-88
2021/04/22 04:26:59;;;;;;;8.50;2.53;;;4.20;99.90;;;;;;4951465;29;20201;-85
2021/04/22 04:29:25;;;;;;;9.20;2.50;;;4.20;99.90;;;;;;4952318;28;20232;-88
2021/04/22 04:31:52;;;;;;;10.00;2.47;;;4.30;99.90;;;;;;4950551;29;20326;-86
2021/04/22 04:34:19;;;;;;;8.83;2.27;;;4.30;99.90;;;;;;4955960;28;20213;-87
2021/04/22 04:36:46;;;;;;;8.03;3.63;;;4.30;99.90;;;;;;4969990;28;20248;-87
2021/04/22 04:39:14;;;;;;;8.10;3.17;;;4.30;99.90;;;;;;4970760;28;20259;-89
2021/04/22 04:41:41;;;;;;;9.60;2.27;;;4.40;99.90;;;;;;4972835;28;20196;-85
2021/04/22 04:44:08;;;;;;;10.27;2.53;;;4.40;99.90;;;;;;4974188;28;20224;-89
2021/04/22 04:46:35;;;;;;;7.27;2.30;;;4.40;99.90;;;;;;4973658;28;20204;-88
2021/04/22 04:49:03;;;;;;;5.43;2.13;;;4.50;99.90;;;;;;4974087;28;20205;-86
2021/04/22 04:51:29;;;;;;;4.57;1.90;;;4.50;99.90;;;;;;4972850;28;20212;-88
2021/04/22 04:53:56;;;;;;;10.33;2.60;;;4.60;99.90;;;;;;4962815;28;20288;-89
2021/04/22 04:56:22;;;;;;;7.23;1.90;;;4.60;99.90;;;;;;4954986;29;20241;-88
2021/04/22 04:58:50;;;;;;;5.90;2.13;;;4.60;99.90;;;;;;4954261;29;20235;-88
2021/04/22 05:01:16;;;;;;;9.27;2.37;;;4.70;99.90;;;;;;4955882;28;20283;-88
2021/04/22 05:03:43;;;;;;;8.97;2.77;;;4.70;99.90;;;;;;4973566;28;20204;-85
2021/04/22 05:06:10;;;;;;;8.10;2.47;;;4.80;99.90;;;;;;4959987;28;20209;-86
2021/04/22 05:08:36;;;;;;;8.33;1.77;;;4.80;99.90;;;;;;4949319;29;20209;-88
2021/04/22 05:11:03;;;;;;;11.00;2.63;;;4.90;99.90;;;;;;4949798;28;20224;-88
2021/04/22 05:13:30;;;;;;;13.40;2.97;;;4.90;99.90;;;;;;4952552;29;21026;-88
2021/04/22 05:15:58;;;;;;;13.07;2.43;;;5.00;99.90;;;;;;4953108;29;20197;-86
2021/04/22 05:18:24;;;;;;;12.17;3.10;;;5.10;99.90;;;;;;4953192;28;20297;-87
2021/04/22 05:20:51;;;;;;;8.83;2.23;;;5.10;99.90;;;;;;4952548;29;20602;-88
2021/04/22 05:23:20;;;;;;;10.47;2.80;;;5.30;99.90;;;;;;4948800;28;20281;-87
2021/04/22 05:25:46;;;;;;;13.20;2.90;;;5.40;99.90;;;;;;4948636;29;20229;-87
2021/04/22 05:28:13;;;;;;;7.53;2.10;;;5.40;99.90;;;;;;4952179;29;20265;-87
2021/04/22 05:30:41;;;;;;;11.13;2.70;;;5.50;99.90;;;;;;4955088;28;20272;-86
2021/04/22 05:33:08;;;;;;;11.63;2.80;;;5.60;99.90;;;;;;4973184;28;20240;-85
2021/04/22 05:35:34;;;;;;;12.37;3.17;;;5.70;99.90;;;;;;4972270;28;20209;-88
2021/04/22 05:38:01;;;;;;;10.33;2.40;;;5.80;99.90;;;;;;4973324;28;20192;-87
2021/04/22 05:40:28;;;;;;;10.47;3.60;;;5.80;99.90;;;;;;4973104;28;20201;-86
2021/04/22 05:42:55;;;;;;;12.23;2.53;;;5.80;99.90;;;;;;4972864;28;20192;-87
2021/04/22 05:45:21;;;;;;;13.37;2.30;;;5.90;99.90;;;;;;4964292;28;20233;-88
2021/04/22 05:47:47;;;;;;;12.57;2.80;;;6.00;99.90;;;;;;4953395;28;20264;-86
2021/04/22 05:50:15;;;;;;;10.97;2.60;;;6.10;99.90;;;;;;4953269;29;20197;-87
2021/04/22 05:52:41;;;;;;;19.23;4.07;;;6.20;99.90;;;;;;4951529;28;20224;-88
2021/04/22 05:55:09;;;;;;;11.47;2.77;;;6.30;99.90;;;;;;4961019;28;20247;-88
2021/04/22 05:57:37;;;;;;;5.63;2.40;;;6.40;99.90;;;;;;4972484;28;20208;-87
2021/04/22 06:00:05;;;;;;;9.63;2.37;;;6.50;99.90;;;;;;4973141;28;20201;-86
2021/04/22 06:02:31;;;;;;;9.90;2.90;;;6.70;99.90;;;;;;4972808;28;20213;-88
2021/04/22 06:05:00;;;;;;;7.23;2.43;;;6.80;99.90;;;;;;4971297;28;20229;-88
2021/04/22 06:07:26;;;;;;;10.90;3.00;;;7.10;99.90;;;;;;4972943;28;20664;-88
2021/04/22 06:09:52;;;;;;;8.27;2.20;;;7.20;99.90;;;;;;4972481;28;20212;-87
2021/04/22 06:12:19;;;;;;;12.00;3.27;;;7.30;99.90;;;;;;4973361;28;20501;-84
2021/04/22 06:14:46;;;;;;;9.83;2.33;;;7.40;99.90;;;;;;4971223;28;20571;-85
2021/04/22 06:17:12;;;;;;;6.77;2.30;;;7.50;99.90;;;;;;4960483;28;20212;-85
2021/04/22 06:19:39;;;;;;;11.73;2.63;;;7.60;99.90;;;;;;4951073;28;20224;-87
2021/04/22 06:22:05;;;;;;;11.03;2.87;;;7.70;99.90;;;;;;4952636;29;20209;-84
2021/04/22 06:24:32;;;;;;;7.27;1.83;;;7.70;99.90;;;;;;4951602;29;20979;-86
2021/04/22 06:26:58;;;;;;;8.87;3.07;;;7.80;99.90;;;;;;4952586;29;20229;-86
2021/04/22 06:29:25;;;;;;;8.23;2.23;;;7.90;99.90;;;;;;4949925;28;20218;-85
2021/04/22 06:31:52;;;;;;;9.73;2.20;;;8.00;99.90;;;;;;4949584;29;20299;-85
2021/04/22 06:34:18;;;;;;;8.70;2.20;;;8.00;99.90;;;;;;4950228;29;20583;-85
2021/04/22 06:36:45;;;;;;;11.43;2.77;;;8.10;99.90;;;;;;4951291;28;20216;-85
2021/04/22 06:39:11;;;;;;;10.53;2.13;;;8.20;99.90;;;;;;4950839;29;20212;-84
2021/04/22 06:41:38;;;;;;;8.37;1.97;;;8.40;99.90;;;;;;4952104;29;20264;-85
2021/04/22 06:44:05;;;;;;;5.77;1.80;;;8.40;99.90;;;;;;4950967;28;20237;-86
2021/04/22 06:46:33;;;;;;;12.50;2.43;;;8.40;99.90;;;;;;4950214;29;20243;-85
2021/04/22 06:49:04;;;;;;;8.30;2.50;;;8.30;99.90;;;;;;4935969;28;20472;-85
2021/04/22 06:51:30;;;;;;;8.40;2.37;;;8.30;99.90;;;;;;4957686;28;20197;-85
2021/04/22 06:53:57;;;;;;;10.73;2.77;;;8.40;99.90;;;;;;4970417;28;20204;-84
2021/04/22 06:56:23;;;;;;;9.60;2.63;;;8.40;99.90;;;;;;4969719;28;20247;-84
2021/04/22 06:58:50;;;;;;;10.43;1.87;;;8.50;99.90;;;;;;4969674;28;20521;-83
2021/04/22 07:01:16;;;;;;;7.33;2.63;;;8.60;99.90;;;;;;4969957;28;20802;-84
2021/04/22 07:03:42;;;;;;;9.63;2.50;;;8.70;99.90;;;;;;4969142;28;20236;-85
2021/04/22 07:06:09;;;;;;;8.13;2.30;;;8.70;99.90;;;;;;4970707;28;20311;-86
2021/04/22 07:08:43;;;;;;;8.97;2.77;;;8.80;99.90;;;;;;4970806;28;20201;-86
2021/04/22 07:11:09;;;;;;;12.57;3.57;;;8.70;99.90;;;;;;4968187;28;20208;-84
2021/04/22 07:13:35;;;;;;;8.97;3.03;;;8.70;99.90;;;;;;4979281;28;20216;-83
2021/04/22 07:16:02;;;;;;;9.63;2.40;;;8.80;99.90;;;;;;4976729;28;20256;-85
2021/04/22 07:18:28;;;;;;;8.40;2.50;;;8.90;99.90;;;;;;4969578;28;20307;-82
2021/04/22 07:20:54;;;;;;;7.30;2.17;;;9.00;99.90;;;;;;4950175;28;20212;-84
2021/04/22 07:23:22;;;;;;;11.67;3.20;;;9.40;99.90;;;;;;4964949;28;20212;-83
2021/04/22 07:25:50;;;;;;;7.73;2.13;;;9.70;99.90;;;;;;4969007;28;20243;-85
2021/04/22 07:28:17;;;;;;;9.03;3.17;;;10.00;99.90;;;;;;4968097;28;20215;-84
2021/04/22 07:30:44;;;;;;;9.73;2.80;;;10.20;99.90;;;;;;4969476;28;20216;-83
2021/04/22 07:33:10;;;;;;;10.17;2.33;;;10.40;99.90;;;;;;4956184;28;20960;-86
2021/04/22 07:35:38;;;;;;;7.10;2.67;;;10.50;99.90;;;;;;4948496;29;20228;-81
2021/04/22 07:38:05;;;;;;;6.60;1.90;;;10.60;99.90;;;;;;4948982;29;20292;-85
2021/04/22 07:40:32;;;;;;;7.47;2.17;;;10.50;99.90;;;;;;4948868;29;20570;-83
2021/04/22 07:42:59;;;;;;;5.57;1.77;;;10.30;99.90;;;;;;4949416;28;20689;-81
2021/04/22 07:45:29;;;;;;;5.20;2.10;;;10.30;99.90;;;;;;4949693;29;20229;-80
2021/04/22 07:47:56;;;;;;;3.77;1.70;;;10.30;99.90;;;;;;4948857;29;20205;-83
2021/04/22 07:50:23;;;;;;;11.07;2.07;;;10.60;99.90;;;;;;4948785;28;20205;-83
2021/04/22 07:52:50;;;;;;;8.97;2.20;;;10.70;99.90;;;;;;4948698;29;20209;-83
2021/04/22 07:55:19;;;;;;;11.33;2.57;;;10.70;99.90;;;;;;4948643;28;20232;-83
2021/04/22 07:57:46;;;;;;;6.17;1.93;;;10.70;99.90;;;;;;4948423;29;20294;-85
2021/04/22 08:00:16;;;;;;;13.20;2.30;;;10.80;99.90;;;;;;4948389;29;20619;-84
2021/04/22 08:02:43;;;;;;;9.27;3.10;;;10.70;99.90;;;;;;4947950;28;20217;-86
2021/04/22 08:05:11;;;;;;;8.57;2.03;;;10.50;99.90;;;;;;4949043;29;20221;-84
2021/04/22 08:07:37;;;;;;;6.07;2.40;;;10.50;99.90;;;;;;4949203;29;20204;-84
2021/04/22 08:10:07;;;;;;;7.93;2.13;;;10.50;99.90;;;;;;4949319;29;20213;-85
2021/04/22 08:12:34;;;;;;;10.90;2.80;;;10.70;99.90;;;;;;4948396;28;20490;-80
2021/04/22 08:15:02;;;;;;;7.90;2.37;;;10.80;99.90;;;;;;4951178;28;20228;-81
2021/04/22 08:17:29;;;;;;;9.47;2.23;;;11.00;99.90;;;;;;4952010;29;20209;-81
2021/04/22 08:19:55;;;;;;;5.83;2.50;;;11.20;99.90;;;;;;4952851;28;20212;-84
2021/04/22 08:22:22;;;;;;;9.27;2.47;;;11.30;99.90;;;;;;4953187;29;20267;-83
2021/04/22 08:24:48;;;;;;;6.20;2.07;;;11.50;99.90;;;;;;4953898;29;20239;-84
2021/04/22 08:27:15;;;;;;;9.27;2.10;;;11.80;99.90;;;;;;4952778;28;20213;-83
2021/04/22 08:29:41;;;;;;;11.03;2.20;;;12.20;99.90;;;;;;4949566;28;20728;-84
2021/04/22 08:32:09;;;;;;;3.80;2.00;;;12.40;99.90;;;;;;4950393;29;20213;-83
2021/04/22 08:34:35;;;;;;;9.40;2.37;;;12.40;99.90;;;;;;4950624;28;20216;-81
2021/04/22 08:37:02;;;;;;;5.73;1.97;;;12.50;99.90;;;;;;4955324;28;20213;-82
2021/04/22 08:39:28;;;;;;;9.20;2.63;;;12.50;99.90;;;;;;4968449;28;20200;-81
2021/04/22 08:41:55;;;;;;;6.63;2.00;;;12.40;99.90;;;;;;4968435;28;20209;-79
2021/04/22 08:44:21;;;;;;;8.27;2.30;;;12.10;99.90;;;;;;4968798;28;20617;-81
2021/04/22 08:46:48;;;;;;;9.23;2.63;;;12.00;99.90;;;;;;4967882;28;20201;-81
2021/04/22 08:49:16;;;;;;;7.43;1.87;;;12.00;99.90;;;;;;4967844;28;20974;-84
2021/04/22 08:51:42;;;;;;;5.77;2.20;;;12.10;99.90;;;;;;4949593;29;20205;-80
2021/04/22 08:54:09;;;;;;;8.17;1.77;;;12.30;99.90;;;;;;4950516;29;20197;-83
2021/04/22 08:56:37;;;;;;;6.57;2.20;;;12.40;99.90;;;;;;4950016;29;20256;-81
2021/04/22 08:59:04;;;;;;;6.50;2.10;;;12.40;99.90;;;;;;4949195;28;20217;-81
2021/04/22 09:01:32;;;;;;;4.13;2.00;;;12.30;99.90;;;;;;4948118;28;20305;-80
2021/04/22 09:04:00;;;;;;;6.23;2.10;;;12.40;99.90;;;;;;4948036;28;20261;-81
2021/04/22 09:06:28;;;;;;;7.37;2.10;;;12.50;99.90;;;;;;4947829;29;20220;-81
2021/04/22 09:08:54;;;;;;;6.30;2.20;;;12.70;99.90;;;;;;4948639;28;20217;-79
2021/04/22 09:11:23;;;;;;;5.43;2.00;;;12.80;99.90;;;;;;4947584;29;20209;-80
2021/04/22 09:13:50;;;;;;;8.73;2.20;;;13.00;99.90;;;;;;4947400;29;20638;-80
2021/04/22 09:16:17;;;;;;;7.67;2.60;;;13.10;99.90;;;;;;4948537;28;20233;-81
2021/04/22 09:18:46;;;;;;;5.60;1.90;;;13.10;99.90;;;;;;4967386;28;20258;-82
2021/04/22 09:21:21;;;;;;;10.63;2.30;;;13.00;99.90;;;;;;4967946;28;20208;-81
2021/04/22 09:24:02;;;;;;;8.87;2.47;;;12.60;99.90;;;;;;4967158;28;20232;-81
2021/04/22 09:26:40;;;;;;;9.80;2.10;;;12.20;99.90;;;;;;4947977;28;20201;-81
2021/04/22 09:29:08;;;;;;;7.73;2.23;;;12.20;99.90;;;;;;4949461;28;20204;-80
2021/04/22 09:31:35;;;;;;;6.73;1.83;;;12.00;99.90;;;;;;4947894;29;20577;-81
2021/04/22 09:34:05;;;;;;;6.17;1.60;;;11.70;99.90;;;;;;4948985;29;20566;-80
2021/04/22 09:36:48;;;;;;;7.50;1.83;;;11.70;99.90;;;;;;4946670;28;20209;-82
2021/04/22 09:39:19;;;;;;;6.13;1.93;;;11.70;99.90;;;;;;4948007;29;20209;-80
2021/04/22 09:41:46;;;;;;;13.37;2.83;;;11.80;99.90;;;;;;4944934;28;20215;-82
2021/04/22 09:44:15;;;;;;;10.63;2.57;;;11.70;99.90;;;;;;4959248;28;20212;-81
2021/04/22 09:46:44;;;;;;;10.20;2.47;;;11.80;99.90;;;;;;4978766;28;20677;-82
2021/04/22 09:49:12;;;;;;;5.83;2.13;;;11.60;99.90;;;;;;4956201;28;20231;-80
2021/04/22 09:51:40;;;;;;;7.47;2.57;;;11.60;99.90;;;;;;4968179;28;20228;-82
2021/04/22 09:54:12;;;;;;;8.33;2.30;;;11.80;99.90;;;;;;4966063;28;20216;-81
2021/04/22 09:56:42;;;;;;;9.20;2.13;;;12.00;99.90;;;;;;4949801;28;20252;-82
2021/04/22 09:59:09;;;;;;;5.90;2.00;;;12.10;99.90;;;;;;4967830;28;20224;-85
2021/04/22 10:01:36;;;;;;;7.87;2.37;;;12.10;99.90;;;;;;4968068;28;20209;-82
2021/04/22 10:04:03;;;;;;;7.90;2.27;;;12.00;99.90;;;;;;4951803;28;20213;-82
2021/04/22 10:06:37;;;;;;;8.73;2.07;;;12.00;99.90;;;;;;4967019;28;20215;-84
2021/04/22 10:09:05;;;;;;;6.43;1.70;;;12.10;99.90;;;;;;4967852;28;20203;-83
2021/04/22 10:11:47;;;;;;;7.37;2.47;;;12.10;99.90;;;;;;4965396;28;20354;-78
2021/04/22 10:14:14;;;;;;;7.10;2.10;;;12.30;99.90;;;;;;4948703;29;20274;-82
2021/04/22 10:16:42;;;;;;;8.20;1.87;;;12.40;99.90;;;;;;4950354;28;20228;-83
2021/04/22 10:19:15;;;;;;;4.43;1.93;;;12.30;99.90;;;;;;4967586;28;20223;-83
2021/04/22 10:21:43;;;;;;;6.07;2.00;;;12.40;99.90;;;;;;4967609;28;20216;-84
2021/04/22 10:24:12;;;;;;;5.43;1.90;;;12.40;99.90;;;;;;4965017;28;20683;-82
2021/04/22 10:26:39;;;;;;;11.37;2.03;;;12.10;99.90;;;;;;4966894;28;20215;-84
2021/04/22 10:29:06;;;;;;;4.43;1.70;;;12.20;99.90;;;;;;4963712;28;20205;-79
2021/04/22 10:31:32;;;;;;;5.43;1.87;;;12.40;99.90;;;;;;4947537;29;21069;-82
2021/04/22 10:33:59;;;;;;;5.00;1.87;;;12.40;99.90;;;;;;4949543;28;20232;-81
2021/04/22 10:36:26;;;;;;;8.13;2.17;;;12.50;99.90;;;;;;4966290;28;20212;-82
2021/04/22 10:38:55;;;;;;;7.13;2.00;;;12.80;99.90;;;;;;4952784;28;20209;-81
2021/04/22 10:41:22;;;;;;;8.20;1.70;;;13.10;99.90;;;;;;4946185;29;20232;-82
2021/04/22 10:43:49;;;;;;;11.13;2.30;;;13.00;99.90;;;;;;4945607;29;20207;-82
2021/04/22 10:46:19;;;;;;;6.00;2.03;;;13.00;99.90;;;;;;4951281;28;20228;-82
2021/04/22 10:48:45;;;;;;;6.23;1.87;;;12.90;99.90;;;;;;4964944;28;20204;-80
2021/04/22 10:51:12;;;;;;;6.13;1.60;;;13.00;99.90;;;;;;4966574;28;20904;-81
2021/04/22 10:53:40;;;;;;;7.27;1.83;;;12.90;99.90;;;;;;4965477;28;20227;-81
2021/04/22 10:56:07;;;;;;;7.57;2.00;;;13.10;99.90;;;;;;4965168;28;20335;-82
2021/04/22 10:58:38;;;;;;;11.23;2.30;;;13.20;99.90;;;;;;4963193;28;20216;-79
2021/04/22 11:01:07;;;;;;;8.37;2.10;;;13.20;99.90;;;;;;4965097;28;20263;-81
2021/04/22 11:03:37;;;;;;;8.57;2.23;;;13.10;99.90;;;;;;4965466;28;20545;-80
2021/04/22 11:06:05;;;;;;;5.07;1.90;;;13.10;99.90;;;;;;4964561;28;20343;-81
2021/04/22 11:08:34;;;;;;;10.43;1.77;;;13.00;99.90;;;;;;4954452;28;20224;-82
2021/04/22 11:11:01;;;;;;;7.77;2.03;;;13.20;99.90;;;;;;4945995;29;20242;-82
2021/04/22 11:13:30;;;;;;;10.80;1.83;;;13.50;99.90;;;;;;4944725;28;20527;-81
2021/04/22 11:16:02;;;;;;;8.10;2.27;;;13.60;99.90;;;;;;4944264;29;20205;-82
2021/04/22 11:18:38;;;;;;;6.83;1.70;;;13.90;99.90;;;;;;4943780;28;20279;-82
2021/04/22 11:21:07;;;;;;;6.60;1.60;;;14.10;99.90;;;;;;4944229;28;20204;-82
2021/04/22 11:23:41;;;;;;;7.60;2.10;;;13.90;99.90;;;;;;4944126;29;20210;-81
2021/04/22 11:26:19;;;;;;;7.13;1.63;;;14.00;99.90;;;;;;4944723;29;20229;-82
2021/04/22 11:28:47;;;;;;;9.37;2.20;;;13.70;99.90;;;;;;4944955;29;20268;-82
2021/04/22 11:31:15;;;;;;;6.13;1.37;;;13.30;99.90;;;;;;4944164;28;20606;-83
2021/04/22 11:33:44;;;;;;;5.10;1.70;;;13.50;99.90;;;;;;4943806;29;20205;-82
2021/04/22 11:36:12;;;;;;;7.13;1.80;;;13.70;99.90;;;;;;4945665;28;20209;-82
2021/04/22 11:39:00;;;;;;;6.63;1.30;;;13.80;99.90;;;;;;4946789;29;20208;-82
2021/04/22 11:41:29;;;;;;;4.40;1.50;;;13.90;99.90;;;;;;4947879;29;20212;-82
2021/04/22 11:44:08;;;;;;;7.73;1.97;;;13.90;99.90;;;;;;4948700;28;20212;-82
2021/04/22 11:46:41;;;;;;;5.67;1.60;;;14.20;99.90;;;;;;4948070;29;20232;-80
2021/04/22 11:49:10;;;;;;;5.77;1.67;;;14.50;99.90;;;;;;4948789;28;20837;-78
2021/04/22 11:51:39;;;;;;;5.60;2.00;;;14.50;99.90;;;;;;4947520;28;20205;-83
2021/04/22 11:54:17;;;;;;;7.03;1.63;;;14.40;99.90;;;;;;4947651;29;20197;-81
2021/04/22 11:56:47;;;;;;;5.10;1.40;;;14.30;99.90;;;;;;4947969;29;20232;-84
2021/04/22 11:59:17;;;;;;;6.43;1.57;;;14.00;99.90;;;;;;4955507;28;20209;-81
2021/04/22 12:01:53;;;;;;;8.63;1.73;;;14.30;99.90;;;;;;4966638;28;20196;-83
2021/04/22 12:04:21;;;;;;;6.07;2.27;;;14.30;99.90;;;;;;4967344;28;20208;-82
2021/04/22 12:06:52;;;;;;;4.77;2.07;;;14.40;99.90;;;;;;4966583;28;20205;-82
2021/04/22 12:09:29;;;;;;;7.43;1.90;;;14.10;99.90;;;;;;4946799;29;20208;-82
2021/04/22 12:12:05;;;;;;;4.27;1.37;;;14.00;99.90;;;;;;4944928;29;20243;-84
2021/04/22 12:14:31;;;;;;;8.33;1.77;;;14.20;99.90;;;;;;4947345;29;20240;-83
2021/04/22 12:16:58;;;;;;;6.13;1.67;;;14.10;99.90;;;;;;4946258;28;20957;-80
2021/04/22 12:19:27;;;;;;;8.10;1.60;;;14.10;99.90;;;;;;4947314;29;20213;-83
2021/04/22 12:21:54;;;;;;;7.37;1.60;;;14.00;99.90;;;;;;4947276;28;20415;-82
2021/04/22 12:24:23;;;;;;;5.93;1.77;;;13.90;99.90;;;;;;4946729;29;20846;-81
2021/04/22 12:26:51;;;;;;;8.13;1.77;;;13.90;99.90;;;;;;4947656;28;20299;-82
2021/04/22 12:29:18;;;;;;;8.00;1.87;;;13.90;99.90;;;;;;4945674;28;20276;-82
2021/04/22 12:31:46;;;;;;;4.50;1.50;;;13.90;99.90;;;;;;4947033;29;20252;-80
2021/04/22 12:34:14;;;;;;;7.63;1.70;;;14.00;99.90;;;;;;4948320;29;20202;-82
2021/04/22 12:36:57;;;;;;;7.27;1.83;;;14.00;99.90;;;;;;4947093;29;20260;-84
2021/04/22 12:39:26;;;;;;;8.37;2.03;;;13.80;99.90;;;;;;4947608;28;20217;-84
2021/04/22 12:42:06;;;;;;;7.20;1.60;;;13.70;99.90;;;;;;4948000;29;20645;-84
2021/04/22 12:44:33;;;;;;;7.97;2.27;;;13.50;99.90;;;;;;4946392;29;20862;-82
2021/04/22 12:47:04;;;;;;;4.63;1.63;;;13.50;99.90;;;;;;4947916;28;20280;-84
2021/04/22 12:49:32;;;;;;;4.53;1.50;;;13.50;99.90;;;;;;4944733;29;20209;-82
2021/04/22 12:52:00;;;;;;;9.33;2.00;;;13.50;99.90;;;;;;4947670;29;20206;-82
2021/04/22 12:54:26;;;;;;;9.63;2.17;;;13.50;99.90;;;;;;4946986;28;20629;-85